Time;durP1;ratioP1;P1;durP2;ratioP2;P2;SDS_P1;SDS_P2;PMS_P1;PMS_P2;Temp;Humidity;BMP_temperature;BMP_pressure;BME280_temperature;BME280_humidity;BME280_pressure;Samples;Min_cycle;Max_cycle;Signal;HPM_P1;HPM_P2
2021/07/27 00:02:13;;;;;;;56.38;27.30;;;17.10;99.90;;;16.04;100.00;102616.28;5005512;28;20079;-75
2021/07/27 00:04:39;;;;;;;67.18;28.70;;;17.10;99.90;;;16.03;100.00;102574.72;5005388;28;20030;-76
2021/07/27 00:07:05;;;;;;;73.53;28.70;;;17.10;99.90;;;16.02;100.00;102572.97;4991952;28;20045;-75
2021/07/27 00:09:31;;;;;;;60.60;27.67;;;17.10;99.90;;;16.02;100.00;102628.75;4990250;28;20374;-75
2021/07/27 00:11:57;;;;;;;63.53;26.95;;;17.10;99.90;;;15.95;100.00;102614.84;4974566;28;21450;-75
2021/07/27 00:14:23;;;;;;;53.88;24.20;;;17.00;99.90;;;15.86;100.00;102615.22;5007160;28;20382;-75
2021/07/27 00:16:49;;;;;;;63.97;24.55;;;16.90;99.90;;;15.77;100.00;102692.59;4980210;28;20039;-75
2021/07/27 00:19:15;;;;;;;53.03;24.60;;;16.90;99.90;;;15.85;100.00;102795.91;4990773;28;20968;-75
2021/07/27 00:21:40;;;;;;;59.10;27.30;;;17.00;99.90;;;15.91;100.00;102823.09;4990241;28;20034;-75
2021/07/27 00:24:06;;;;;;;56.15;27.00;;;17.10;99.90;;;16.03;100.00;102866.13;4968289;28;20030;-75
2021/07/27 00:26:34;;;;;;;54.33;27.60;;;17.10;99.90;;;15.99;100.00;102858.25;4955475;28;20446;-76
2021/07/27 00:29:00;;;;;;;94.32;23.30;;;17.10;99.90;;;15.86;100.00;102859.59;4956990;28;20023;-75
2021/07/27 00:31:28;;;;;;;127.18;20.23;;;16.80;99.90;;;15.38;100.00;102834.66;4947864;28;20023;-75
2021/07/27 00:33:54;;;;;;;49.47;18.15;;;16.60;99.90;;;15.27;100.00;102863.34;4954310;28;20559;-76
2021/07/27 00:36:20;;;;;;;59.83;18.83;;;16.40;99.90;;;15.17;100.00;102917.63;4991634;28;20109;-75
2021/07/27 00:38:46;;;;;;;49.88;20.88;;;16.40;99.90;;;15.33;100.00;103037.44;5006864;28;20459;-75
2021/07/27 00:41:12;;;;;;;57.90;23.35;;;16.60;99.90;;;15.48;100.00;103009.56;4986343;28;20073;-75
2021/07/27 00:43:38;;;;;;;59.58;23.67;;;16.60;99.90;;;15.53;100.00;103087.31;4986576;28;20383;-75
2021/07/27 00:46:04;;;;;;;59.15;25.02;;;16.70;99.90;;;15.54;100.00;103068.66;4972667;28;20084;-76
2021/07/27 00:48:30;;;;;;;45.40;24.40;;;16.70;99.90;;;15.55;100.00;103191.66;4990866;28;20130;-75
2021/07/27 00:50:56;;;;;;;108.55;20.35;;;16.70;99.90;;;15.53;100.00;103007.66;4988983;28;20142;-75
2021/07/27 00:53:22;;;;;;;38.78;16.15;;;16.60;99.90;;;15.30;100.00;102918.97;5006399;28;20096;-75
2021/07/27 00:55:48;;;;;;;71.88;13.70;;;16.50;99.90;;;15.15;100.00;102871.69;4989968;28;20064;-75
2021/07/27 00:58:15;;;;;;;45.65;14.90;;;16.30;99.90;;;15.00;100.00;102928.75;5004156;28;20029;-75
2021/07/27 01:00:42;;;;;;;46.47;16.05;;;16.20;99.90;;;14.99;100.00;103001.28;4988831;28;20045;-75
2021/07/27 01:03:08;;;;;;;44.70;16.23;;;16.20;99.90;;;15.02;100.00;102766.88;4996579;28;20026;-75
2021/07/27 01:05:34;;;;;;;41.58;16.17;;;16.20;99.90;;;15.04;100.00;102752.63;4941252;28;20514;-75
2021/07/27 01:08:00;;;;;;;26.55;14.20;;;16.20;99.90;;;15.03;100.00;102789.81;4954532;28;20030;-75
2021/07/27 01:10:26;;;;;;;205.40;14.60;;;16.20;99.90;;;14.97;100.00;102733.41;4985079;28;20030;-75
2021/07/27 01:12:52;;;;;;;101.65;12.45;;;16.10;99.90;;;14.84;100.00;102705.56;4955186;28;20174;-75
2021/07/27 01:15:18;;;;;;;121.05;12.13;;;16.00;99.90;;;14.73;100.00;102686.47;4983354;28;20499;-75
2021/07/27 01:17:45;;;;;;;26.10;11.80;;;15.90;99.90;;;14.67;100.00;102682.22;4957465;28;20031;-75
2021/07/27 01:20:19;;;;;;;26.48;11.98;;;15.90;99.90;;;14.68;100.00;102656.59;4969004;28;20075;-75
2021/07/27 01:39:29;;;;;;;31.88;14.65;;;16.10;99.90;;;14.98;100.00;102898.72;4999690;28;20034;-75
2021/07/27 01:44:53;;;;;;;46.08;20.38;;;16.20;99.90;;;15.05;100.00;103048.84;4942672;28;20035;-75
2021/07/27 01:47:22;;;;;;;122.95;18.80;;;16.20;99.90;;;15.05;100.00;103132.88;4955411;28;20386;-75
2021/07/27 01:49:50;;;;;;;32.60;15.88;;;16.20;99.90;;;14.98;100.00;103098.56;4984874;28;20061;-76
2021/07/27 01:52:17;;;;;;;47.53;23.63;;;16.20;99.90;;;15.05;100.00;103196.56;4986802;28;20052;-75
2021/07/27 01:54:55;;;;;;;57.15;26.52;;;16.30;99.90;;;15.21;100.00;103287.28;4956893;28;20031;-75
2021/07/27 01:57:24;;;;;;;62.67;26.98;;;16.40;99.90;;;15.28;100.00;103257.00;5003674;28;20104;-75
2021/07/27 02:00:02;;;;;;;48.72;22.92;;;16.40;99.90;;;15.20;100.00;103283.75;4971977;28;20448;-75
2021/07/27 02:02:28;;;;;;;45.70;24.83;;;16.30;99.90;;;15.18;100.00;103298.84;4974217;28;20049;-75
2021/07/27 02:04:53;;;;;;;62.78;28.13;;;16.30;99.90;;;15.20;100.00;103420.88;4973334;28;20064;-75
2021/07/27 02:07:20;;;;;;;49.47;25.88;;;16.40;99.90;;;15.24;100.00;103412.81;4950823;28;20035;-75
2021/07/27 02:09:48;;;;;;;66.38;29.02;;;16.40;99.90;;;15.26;100.00;103412.78;4975259;28;20039;-76
2021/07/27 02:12:23;;;;;;;57.42;28.90;;;16.40;99.90;;;15.26;100.00;103482.66;4977154;28;20375;-76
2021/07/27 02:15:07;;;;;;;65.55;27.88;;;16.40;99.90;;;15.25;100.00;103243.81;4964052;28;20042;-75
2021/07/27 02:17:35;;;;;;;58.88;27.63;;;16.40;99.90;;;15.26;100.00;103227.84;4998553;28;20029;-75
2021/07/27 02:20:05;;;;;;;62.15;28.95;;;16.40;99.90;;;15.26;100.00;103164.16;5004690;28;20057;-75
2021/07/27 02:22:36;;;;;;;63.63;29.15;;;16.40;99.90;;;15.24;100.00;103160.66;4985283;28;20093;-76
2021/07/27 02:25:05;;;;;;;77.82;28.38;;;16.40;99.90;;;15.26;100.00;103136.75;5004781;28;20049;-75
2021/07/27 02:27:31;;;;;;;88.85;29.75;;;16.40;99.90;;;15.27;100.00;103133.16;4970366;28;20079;-75
2021/07/27 02:29:58;;;;;;;60.25;30.17;;;16.40;99.90;;;15.28;100.00;103148.19;4995414;28;21258;-75
2021/07/27 02:32:25;;;;;;;65.25;28.40;;;16.40;99.90;;;15.25;100.00;103119.06;4955244;28;20121;-75
2021/07/27 02:34:51;;;;;;;52.58;27.83;;;16.40;99.90;;;15.24;100.00;103120.84;4940483;28;20357;-75
2021/07/27 02:37:17;;;;;;;63.78;27.05;;;16.40;99.90;;;15.24;100.00;103127.94;4950389;28;20061;-75
2021/07/27 02:39:43;;;;;;;62.28;28.85;;;16.50;99.90;;;15.32;100.00;103161.34;4953696;28;20050;-75
2021/07/27 02:42:09;;;;;;;66.60;30.92;;;16.50;99.90;;;15.35;100.00;103173.63;4953301;28;20031;-76
2021/07/27 02:44:36;;;;;;;68.82;31.02;;;16.50;99.90;;;15.34;100.00;103101.09;4937093;28;20419;-75
2021/07/27 02:47:05;;;;;;;84.22;30.13;;;16.50;99.90;;;15.31;100.00;103129.50;4935364;28;20065;-75
2021/07/27 02:49:31;;;;;;;60.22;30.73;;;16.40;99.90;;;15.30;100.00;103195.00;4936173;28;20039;-75
2021/07/27 02:51:57;;;;;;;70.88;29.33;;;16.50;99.90;;;15.28;100.00;103159.66;4984383;28;20384;-75
2021/07/27 02:54:23;;;;;;;63.00;27.00;;;16.40;99.90;;;15.22;100.00;103188.16;4952272;28;20089;-75
2021/07/27 02:56:49;;;;;;;68.53;20.83;;;16.30;99.90;;;15.09;100.00;103139.84;4935755;28;20030;-75
2021/07/27 02:59:15;;;;;;;62.97;15.82;;;16.20;99.90;;;14.84;100.00;103129.03;4952116;28;20123;-75
2021/07/27 03:01:41;;;;;;;24.50;14.27;;;16.00;99.90;;;14.62;100.00;103229.47;4952269;28;20117;-75
2021/07/27 03:04:07;;;;;;;32.92;16.88;;;15.80;99.90;;;14.51;100.00;103148.41;4966422;28;20061;-75
2021/07/27 03:06:33;;;;;;;26.60;15.05;;;15.70;99.90;;;14.47;100.00;103172.34;4951544;28;20053;-75
2021/07/27 03:11:25;;;;;;;28.95;15.57;;;15.70;99.90;;;14.42;100.00;103180.41;4951890;28;20074;-74
2021/07/27 03:13:54;;;;;;;26.52;14.27;;;15.60;99.90;;;14.39;100.00;103134.56;4950611;28;20034;-74
2021/07/27 03:16:23;;;;;;;26.48;15.52;;;15.60;99.90;;;14.40;100.00;103134.50;4952025;28;20035;-74
2021/07/27 03:18:52;;;;;;;26.20;15.20;;;15.60;99.90;;;14.39;100.00;103140.75;4935689;28;20169;-75
2021/07/27 03:21:21;;;;;;;18.52;12.82;;;15.60;99.90;;;14.38;100.00;103138.97;4952575;28;20521;-74
2021/07/27 03:23:49;;;;;;;21.75;12.93;;;15.60;99.90;;;14.42;100.00;103145.94;4949529;28;20995;-75
2021/07/27 03:26:16;;;;;;;25.98;14.43;;;15.60;99.90;;;14.46;100.00;103203.28;4937620;28;24968;-75
2021/07/27 03:28:43;;;;;;;36.92;16.55;;;15.70;99.90;;;14.47;100.00;103162.63;4949002;28;20064;-74
2021/07/27 03:31:09;;;;;;;22.10;10.35;;;15.70;99.90;;;14.45;100.00;103105.25;4931161;28;20027;-75
2021/07/27 03:33:35;;;;;;;27.13;13.68;;;15.70;99.90;;;14.43;100.00;103171.56;4935282;28;20035;-75
2021/07/27 03:36:01;;;;;;;26.25;12.10;;;15.70;99.90;;;14.48;100.00;103092.78;4951675;28;20034;-75
2021/07/27 03:38:26;;;;;;;33.08;19.08;;;15.80;99.90;;;14.62;100.00;103124.31;4933687;28;20057;-75
2021/07/27 03:41:02;;;;;;;38.47;18.23;;;15.90;99.90;;;14.81;100.00;103187.47;4952688;28;20125;-75
2021/07/27 03:43:28;;;;;;;44.40;21.83;;;16.10;99.90;;;15.02;100.00;103411.56;4952035;28;20735;-75
2021/07/27 03:45:53;;;;;;;47.70;24.38;;;16.30;99.90;;;15.28;100.00;103390.59;4971401;28;20038;-75
2021/07/27 03:48:19;;;;;;;47.92;26.95;;;16.60;99.90;;;15.53;100.00;103501.53;4968945;28;20072;-75
2021/07/27 03:50:45;;;;;;;60.55;29.52;;;16.80;99.90;;;15.72;100.00;103574.59;4985472;28;20458;-75
2021/07/27 03:53:17;;;;;;;66.32;31.27;;;17.00;99.90;;;15.90;100.00;103606.97;4984326;28;20030;-74
2021/07/27 03:55:44;;;;;;;44.25;27.42;;;17.00;99.90;;;15.95;100.00;103677.69;4972407;28;21188;-75
2021/07/27 03:58:10;;;;;;;45.50;24.10;;;17.10;99.90;;;16.07;100.00;103723.50;4979756;28;20414;-75
2021/07/27 04:00:36;;;;;;;45.38;23.40;;;17.20;99.90;;;16.14;100.00;103603.72;5003838;28;20065;-74
2021/07/27 04:03:06;;;;;;;34.30;21.23;;;17.30;99.90;;;16.28;100.00;103488.16;5000742;28;20052;-75
2021/07/27 04:05:35;;;;;;;42.85;21.80;;;17.50;99.90;;;16.42;100.00;103560.47;4988811;28;20030;-74
2021/07/27 04:08:01;;;;;;;34.75;19.48;;;17.80;99.90;;;16.75;100.00;103390.19;4999962;28;20027;-75
2021/07/27 04:10:27;;;;;;;34.90;17.35;;;18.30;99.90;;;17.29;100.00;103540.34;5003479;28;20531;-75
2021/07/27 04:12:53;;;;;;;30.23;14.18;;;18.90;99.90;;;18.02;100.00;103543.34;4984505;28;20475;-75
2021/07/27 04:15:28;;;;;;;43.63;13.00;;;19.70;99.90;;;18.35;100.00;103224.84;4987936;28;20037;-75
2021/07/27 04:17:54;;;;;;;17.23;11.07;;;19.80;99.90;;;18.24;100.00;103187.94;4969884;28;20035;-75
2021/07/27 04:20:20;;;;;;;30.60;11.20;;;19.70;99.90;;;17.97;100.00;103116.13;5003809;28;20116;-75
2021/07/27 04:22:49;;;;;;;30.20;12.18;;;19.30;99.90;;;17.56;100.00;103045.78;4986167;28;20394;-74
2021/07/27 04:25:15;;;;;;;25.33;12.65;;;18.80;99.90;;;17.17;100.00;103019.75;4967121;28;20031;-75
2021/07/27 04:27:41;;;;;;;27.33;13.35;;;18.50;99.90;;;17.06;100.00;103037.91;4933842;28;20035;-75
2021/07/27 04:30:08;;;;;;;35.00;15.45;;;18.30;99.90;;;16.93;100.00;102982.50;4950684;28;20042;-75
2021/07/27 04:32:34;;;;;;;39.40;16.63;;;18.10;99.90;;;16.84;100.00;102971.34;4952145;28;20031;-75
2021/07/27 04:35:00;;;;;;;33.90;17.08;;;17.90;99.90;;;16.71;100.00;102978.88;4954057;28;20479;-74
2021/07/27 04:37:26;;;;;;;39.53;18.33;;;17.80;99.90;;;16.61;100.00;102943.78;4949117;28;20038;-74
2021/07/27 04:39:51;;;;;;;48.75;18.98;;;17.70;99.90;;;16.57;100.00;102953.66;4950472;28;20073;-75
2021/07/27 04:42:17;;;;;;;59.15;19.98;;;17.70;99.90;;;16.53;100.00;102938.72;4951963;28;20027;-75
2021/07/27 04:44:43;;;;;;;47.35;20.38;;;17.60;99.90;;;16.49;100.00;102950.41;4981637;28;20038;-75
2021/07/27 04:47:09;;;;;;;75.50;21.85;;;17.60;99.90;;;16.48;100.00;102950.44;4950139;28;20070;-75
2021/07/27 04:49:35;;;;;;;55.80;20.25;;;17.60;99.90;;;16.48;100.00;102963.72;4937240;28;20237;-74
2021/07/27 04:52:01;;;;;;;67.80;21.70;;;17.60;99.90;;;16.56;100.00;102953.69;4985377;28;20074;-75
2021/07/27 04:54:41;;;;;;;60.35;21.85;;;17.60;99.90;;;16.53;100.00;102962.66;4971516;28;20360;-74
2021/07/27 04:57:10;;;;;;;53.90;21.42;;;17.60;99.90;;;16.50;100.00;102944.16;4972519;28;20018;-75
2021/07/27 04:59:37;;;;;;;70.93;23.58;;;17.60;99.90;;;16.55;100.00;103029.09;4984322;28;20034;-75
2021/07/27 05:02:03;;;;;;;62.88;21.52;;;17.60;99.90;;;16.58;100.00;103098.13;4928166;28;20383;-75
2021/07/27 05:04:30;;;;;;;49.53;22.05;;;17.60;99.90;;;16.57;100.00;103121.19;4953645;28;20045;-74
2021/07/27 05:06:56;;;;;;;51.00;21.92;;;17.70;99.90;;;16.60;100.00;103182.25;4982457;28;20163;-75
2021/07/27 05:09:21;;;;;;;66.05;20.98;;;17.70;99.90;;;16.59;100.00;103187.66;4990327;28;20360;-75
2021/07/27 05:11:47;;;;;;;65.55;22.13;;;17.70;99.90;;;16.64;100.00;103222.06;4974167;28;20042;-75
2021/07/27 05:14:14;;;;;;;56.33;22.17;;;17.70;99.90;;;16.68;100.00;103213.94;4972054;28;20022;-74
2021/07/27 05:16:40;;;;;;;54.17;22.20;;;17.80;99.90;;;16.74;100.00;103252.78;4941624;28;20030;-75
2021/07/27 05:19:05;;;;;;;44.83;21.50;;;17.90;99.90;;;16.79;100.00;103259.69;4952273;28;20470;-74
2021/07/27 05:21:31;;;;;;;45.50;21.33;;;17.90;99.90;;;16.85;100.00;103295.03;4986029;28;20455;-75
2021/07/27 05:23:57;;;;;;;43.00;21.85;;;17.90;99.90;;;16.87;100.00;103246.16;4968856;28;21553;-75
2021/07/27 05:26:23;;;;;;;48.97;21.88;;;17.90;99.90;;;16.90;100.00;103240.72;4953242;28;20039;-75
2021/07/27 05:28:49;;;;;;;43.42;20.02;;;18.00;99.90;;;16.95;100.00;103212.19;4936307;28;20035;-75
2021/07/27 05:31:15;;;;;;;44.03;20.85;;;18.10;99.90;;;17.04;100.00;103248.28;4953233;28;20038;-75
2021/07/27 05:33:41;;;;;;;38.60;20.05;;;18.20;99.90;;;17.11;100.00;103312.81;4938790;28;20038;-74
2021/07/27 05:36:09;;;;;;;45.20;20.38;;;18.30;99.90;;;17.19;100.00;103305.41;4935515;28;20117;-74
2021/07/27 05:38:35;;;;;;;54.67;21.27;;;18.30;99.90;;;17.26;100.00;103354.91;4970785;28;20085;-75
2021/07/27 05:41:01;;;;;;;36.65;18.90;;;18.40;99.90;;;17.32;100.00;103349.38;4954667;28;20050;-75
2021/07/27 05:43:27;;;;;;;34.70;17.65;;;18.40;99.90;;;17.35;100.00;103317.31;5005673;28;20038;-74
2021/07/27 05:45:53;;;;;;;40.35;18.33;;;18.40;99.90;;;17.38;100.00;103359.81;5005820;28;20037;-75
2021/07/27 05:48:19;;;;;;;40.10;17.83;;;18.50;99.90;;;17.50;100.00;103389.63;4988403;28;20027;-74
2021/07/27 05:50:45;;;;;;;40.78;17.40;;;18.60;99.90;;;17.57;100.00;103375.19;4988705;28;20038;-74
2021/07/27 05:53:11;;;;;;;28.27;16.65;;;18.60;99.90;;;17.61;100.00;103409.66;4986317;28;20031;-75
2021/07/27 05:55:36;;;;;;;38.65;16.38;;;18.70;99.90;;;17.69;100.00;103400.50;4989253;28;20098;-75
2021/07/27 05:58:02;;;;;;;29.73;15.88;;;18.80;99.90;;;17.91;100.00;103523.31;5004443;28;20499;-75
2021/07/27 06:00:28;;;;;;;35.15;15.70;;;19.00;99.90;;;18.01;100.00;103448.31;4972173;28;20537;-74
2021/07/27 06:02:54;;;;;;;32.53;15.10;;;19.00;99.90;;;18.09;100.00;103449.81;4980044;28;20466;-75
2021/07/27 06:05:20;;;;;;;22.58;13.88;;;19.20;99.90;;;18.30;100.00;103510.41;4986545;28;20030;-75
2021/07/27 06:07:46;;;;;;;22.20;14.57;;;19.40;99.90;;;18.37;100.00;103437.22;4980038;28;20038;-75
2021/07/27 06:10:12;;;;;;;25.13;13.60;;;19.50;99.90;;;18.47;100.00;103404.91;5002624;28;20026;-75
2021/07/27 06:12:38;;;;;;;19.90;13.07;;;19.50;99.90;;;18.59;100.00;103375.91;4996898;28;20023;-75
2021/07/27 06:15:06;;;;;;;20.33;12.95;;;19.70;99.90;;;18.65;100.00;103385.50;5002772;28;20108;-75
2021/07/27 06:17:32;;;;;;;21.17;12.68;;;19.80;99.90;;;18.80;100.00;103397.41;4987399;28;20030;-75
2021/07/27 06:19:58;;;;;;;23.40;13.35;;;19.90;99.90;;;18.96;100.00;103405.69;4984838;28;20387;-75
2021/07/27 06:22:23;;;;;;;18.95;12.35;;;20.10;99.90;;;19.06;100.00;103401.72;4995597;28;20133;-75
2021/07/27 06:24:49;;;;;;;21.42;11.65;;;20.10;99.90;;;19.20;100.00;103411.84;4987786;28;20031;-75
2021/07/27 06:27:15;;;;;;;21.92;12.70;;;20.30;99.90;;;19.44;100.00;103458.94;4997423;28;20053;-75
2021/07/27 06:29:41;;;;;;;17.42;10.90;;;20.60;99.90;;;19.76;100.00;103486.19;5003356;28;20027;-75
2021/07/27 06:32:09;;;;;;;15.85;10.80;;;20.90;99.90;;;20.13;100.00;103514.03;4988443;28;20499;-75
2021/07/27 06:34:35;;;;;;;19.83;10.48;;;21.40;99.90;;;20.61;100.00;103542.28;5002627;28;20114;-75
2021/07/27 06:37:01;;;;;;;14.13;9.30;;;21.70;99.90;;;20.81;97.63;103498.53;4944718;28;20030;-75
2021/07/27 06:39:29;;;;;;;16.60;9.32;;;21.80;99.90;;;20.98;96.13;106613.97;4934371;28;20038;-75
2021/07/27 06:41:55;;;;;;;13.35;8.73;;;21.90;99.90;;;20.89;95.16;105022.28;4943939;28;20073;-75
2021/07/27 06:44:22;;;;;;;16.17;8.98;;;22.00;99.90;;;21.07;97.09;104282.28;4951354;28;20553;-76
2021/07/27 06:46:49;;;;;;;16.95;9.32;;;22.20;99.90;;;21.44;96.16;104213.97;4951257;28;20050;-75
2021/07/27 06:49:18;;;;;;;13.00;9.18;;;22.70;99.90;;;22.28;90.62;103978.06;4936069;28;20114;-75
2021/07/27 06:51:44;;;;;;;14.32;7.82;;;23.50;99.90;;;23.22;85.50;104124.22;4953163;28;20118;-75
2021/07/27 06:54:09;;;;;;;11.57;7.80;;;24.20;99.90;;;24.01;81.20;104033.38;4952772;28;20049;-75
2021/07/27 06:56:39;;;;;;;12.10;7.18;;;24.80;99.90;;;25.04;76.22;104078.22;4935056;28;20353;-76
2021/07/27 06:59:05;;;;;;;11.07;7.15;;;25.50;99.90;;;25.57;72.11;103915.09;4966421;28;20458;-76
2021/07/27 07:01:31;;;;;;;10.32;6.53;;;26.00;99.90;;;25.49;70.06;103709.72;4934676;28;20037;-76
2021/07/27 07:03:58;;;;;;;10.32;6.65;;;26.50;99.90;;;26.82;65.82;103491.03;4950416;28;20065;-76
2021/07/27 07:06:24;;;;;;;13.15;7.15;;;26.90;99.90;;;26.93;62.76;103461.34;4955992;28;20062;-76
2021/07/27 07:08:50;;;;;;;10.52;6.07;;;27.60;99.90;;;28.02;60.54;103318.59;4984362;28;20018;-76
2021/07/27 07:11:16;;;;;;;13.23;6.25;;;28.30;99.90;;;28.86;57.88;103586.53;4958895;28;20081;-76
2021/07/27 07:13:43;;;;;;;10.48;5.53;;;28.70;99.90;;;28.97;55.29;103479.88;4928295;28;20436;-76
2021/07/27 07:16:11;;;;;;;15.18;5.57;;;28.70;99.90;;;28.69;54.96;103254.44;4952763;28;20035;-76
2021/07/27 07:18:37;;;;;;;13.05;6.00;;;28.30;99.90;;;27.95;58.06;103607.13;4981760;28;20041;-76
2021/07/27 07:21:06;;;;;;;9.43;5.53;;;27.60;99.90;;;27.34;59.45;103428.56;4966759;28;20039;-76
2021/07/27 07:23:33;;;;;;;10.70;5.75;;;27.20;99.90;;;27.36;58.83;103509.59;4969418;28;20030;-76
2021/07/27 07:26:01;;;;;;;9.32;5.43;;;27.70;99.90;;;28.26;57.03;103322.16;4934146;28;20491;-76
2021/07/27 07:28:27;;;;;;;18.38;5.80;;;27.90;99.90;;;28.32;56.36;103230.41;4936310;28;20558;-75
2021/07/27 07:30:53;;;;;;;8.82;5.28;;;28.60;99.90;;;29.38;55.22;103282.94;4947884;28;20059;-76
2021/07/27 07:33:19;;;;;;;10.65;5.15;;;29.40;99.90;;;29.94;50.27;103338.69;4954621;28;20065;-76
2021/07/27 07:36:11;;;;;;;7.25;4.70;;;29.20;99.90;;;29.81;51.90;103296.31;4951578;28;20085;-75
2021/07/27 07:38:39;;;;;;;17.17;5.03;;;29.70;99.90;;;30.41;49.47;103307.25;4948962;28;20097;-76
2021/07/27 07:41:10;;;;;;;9.02;5.18;;;29.80;99.90;;;30.61;50.63;103285.53;4955030;28;20046;-76
2021/07/27 07:43:38;;;;;;;8.13;5.00;;;29.90;99.90;;;29.80;50.37;103136.22;4994138;28;20026;-76
2021/07/27 07:46:04;;;;;;;11.75;4.82;;;29.30;99.90;;;29.88;51.27;106296.00;4955501;28;20418;-75
2021/07/27 07:48:30;;;;;;;12.02;4.63;;;29.70;99.90;;;30.43;49.07;103875.22;4927952;28;20031;-76
2021/07/27 07:50:56;;;;;;;10.40;4.40;;;30.10;99.90;;;30.90;48.13;103467.78;4950903;28;20029;-75
2021/07/27 07:53:22;;;;;;;11.40;4.97;;;30.60;99.90;;;31.66;46.66;103279.22;4952725;28;20023;-76
2021/07/27 07:55:48;;;;;;;7.70;4.38;;;30.50;99.90;;;31.09;47.38;103015.31;4937927;28;20696;-76
2021/07/27 07:58:14;;;;;;;7.18;4.47;;;30.30;99.90;;;30.76;47.77;102967.78;4984105;28;20027;-75
2021/07/27 08:00:41;;;;;;;6.25;4.28;;;30.40;99.90;;;31.16;46.74;102888.50;4981562;28;20035;-75
2021/07/27 08:03:07;;;;;;;9.57;5.00;;;30.30;99.90;;;31.11;46.31;102803.78;4982224;28;20031;-75
2021/07/27 08:05:33;;;;;;;12.80;3.88;;;30.10;99.90;;;30.64;46.29;102717.00;5004362;28;20033;-75
2021/07/27 08:07:59;;;;;;;10.68;3.90;;;29.90;99.90;;;30.09;47.22;102703.47;4953534;28;20042;-76
2021/07/27 08:10:25;;;;;;;8.85;3.97;;;29.40;99.90;;;29.00;49.31;102422.00;4971957;28;20050;-75
2021/07/27 08:12:51;;;;;;;10.73;4.10;;;28.30;99.90;;;27.83;53.52;102320.34;4954114;28;20038;-75
2021/07/27 08:15:24;;;;;;;9.02;4.28;;;27.70;99.90;;;27.65;53.95;102329.38;4951691;28;20442;-75
2021/07/27 08:17:50;;;;;;;16.45;4.13;;;28.10;99.90;;;28.56;51.70;102402.84;4952446;28;21131;-75
2021/07/27 08:20:16;;;;;;;9.25;4.00;;;28.70;99.90;;;28.92;50.26;102408.34;4951225;28;20131;-75
2021/07/27 08:22:42;;;;;;;11.15;4.03;;;29.60;99.90;;;29.99;48.30;102500.72;4935325;28;20033;-75
2021/07/27 08:25:18;;;;;;;7.70;4.28;;;29.90;99.90;;;29.85;46.76;102447.84;4978865;28;20022;-75
2021/07/27 08:27:46;;;;;;;8.43;3.90;;;30.00;99.90;;;30.13;46.66;102468.56;4983786;28;20055;-75
2021/07/27 08:30:17;;;;;;;14.82;3.80;;;30.90;99.90;;;30.96;45.60;102509.72;4939582;28;20027;-76
2021/07/27 08:32:52;;;;;;;4.68;3.10;;;31.20;99.90;;;30.96;46.20;102406.38;4969709;28;20038;-76
2021/07/27 08:35:20;;;;;;;8.37;3.60;;;31.40;99.90;;;30.63;44.20;102318.41;4955560;28;20427;-75
2021/07/27 08:37:47;;;;;;;9.00;3.40;;;31.00;99.90;;;30.60;45.84;102324.16;4937836;28;20267;-75
2021/07/27 08:40:17;;;;;;;8.88;3.95;;;31.10;99.90;;;30.51;44.85;102293.38;4956530;28;20034;-75
2021/07/27 08:42:47;;;;;;;6.72;3.60;;;30.60;99.90;;;29.99;46.25;102239.16;4976932;28;20360;-75
2021/07/27 08:45:13;;;;;;;6.32;3.65;;;30.40;99.90;;;29.81;45.49;102222.97;4945483;28;20300;-75
2021/07/27 08:47:49;;;;;;;6.32;3.78;;;30.50;99.90;;;29.93;47.85;102218.94;4957381;28;20019;-75
2021/07/27 08:50:17;;;;;;;11.00;4.03;;;31.00;99.90;;;30.19;48.96;102246.03;4987288;28;20427;-75
2021/07/27 08:52:43;;;;;;;5.90;3.20;;;31.30;99.90;;;30.39;46.56;102214.03;4977821;28;20527;-75
2021/07/27 08:55:11;;;;;;;8.27;3.90;;;31.20;99.90;;;30.36;45.69;102187.19;4949545;28;20031;-75
2021/07/27 08:58:07;;;;;;;9.02;4.07;;;31.10;99.90;;;30.07;47.13;102136.00;4945644;28;20548;-75
2021/07/27 09:00:36;;;;;;;8.52;3.15;;;30.50;99.90;;;29.51;47.09;102056.91;4963289;28;20042;-75
2021/07/27 09:03:16;;;;;;;4.60;3.10;;;30.00;99.90;;;29.14;47.83;102052.69;4973227;28;20030;-75
2021/07/27 09:06:20;;;;;;;5.07;3.30;;;29.60;99.90;;;28.77;48.97;102005.00;4923352;28;20403;-75
2021/07/27 09:09:35;;;;;;;5.82;3.00;;;29.10;99.90;;;28.38;49.36;102008.09;4979371;28;20030;-75
2021/07/27 09:12:10;;;;;;;5.15;2.92;;;29.00;99.90;;;28.60;48.75;102027.59;4994889;28;20034;-75
2021/07/27 09:14:47;;;;;;;3.60;2.85;;;29.50;99.90;;;29.34;51.74;102079.56;4958847;28;21215;-75
2021/07/27 09:17:13;;;;;;;4.28;3.30;;;29.90;99.90;;;29.47;49.41;102057.41;4981596;28;20034;-75
2021/07/27 09:19:41;;;;;;;5.85;3.33;;;29.90;99.90;;;29.56;48.78;102059.97;4999104;28;20375;-75
2021/07/27 09:22:08;;;;;;;16.13;2.70;;;29.80;99.90;;;29.30;46.77;102008.50;4950750;28;20033;-75
2021/07/27 09:24:38;;;;;;;5.72;3.40;;;29.30;99.90;;;28.55;48.57;101940.50;5000130;28;20544;-75
2021/07/27 09:27:14;;;;;;;8.65;2.65;;;29.20;99.90;;;28.91;51.58;101971.03;4979283;28;20027;-75
2021/07/27 09:29:46;;;;;;;;;;;29.20;99.90;;;28.98;47.24;101953.09;4951001;28;20070;-75
2021/07/27 09:32:21;;;;;;;5.82;3.03;;;29.30;99.90;;;28.92;48.46;101936.63;4940129;28;19913;-75
2021/07/27 09:34:48;;;;;;;6.82;3.25;;;29.30;99.90;;;29.19;51.58;101993.38;4950727;28;20445;-75
2021/07/27 09:37:37;;;;;;;10.38;3.15;;;29.20;99.90;;;28.78;49.16;101924.53;4954028;28;20022;-75
2021/07/27 09:40:21;;;;;;;7.70;2.92;;;29.40;99.90;;;29.36;51.53;102016.00;4908940;28;20510;-75
2021/07/27 09:43:27;;;;;;;5.18;3.00;;;29.80;99.90;;;29.58;49.97;102014.53;4964471;28;20042;-75
2021/07/27 09:46:06;;;;;;;6.18;2.75;;;30.00;99.90;;;29.52;50.96;101966.34;4945654;28;20031;-75
2021/07/27 09:49:22;;;;;;;8.20;2.75;;;29.70;99.90;;;29.36;47.99;101942.75;4988890;28;20046;-75
2021/07/27 09:52:03;;;;;;;5.97;2.55;;;29.40;99.90;;;29.13;47.56;101911.81;4949689;28;20033;-75
2021/07/27 09:55:06;;;;;;;6.78;2.80;;;28.90;99.90;;;28.21;51.38;101828.41;4979513;28;20106;-75
2021/07/27 09:57:55;;;;;;;5.38;2.42;;;28.80;99.90;;;28.38;49.33;101850.13;4981519;28;20395;-75
2021/07/27 10:01:35;;;;;;;7.70;3.20;;;29.20;99.90;;;29.25;47.84;101924.06;4965689;28;20060;-75
2021/07/27 10:04:25;;;;;;;3.85;2.72;;;29.90;99.90;;;29.70;49.23;101963.53;4924754;28;20034;-75
2021/07/27 10:06:51;;;;;;;5.97;2.72;;;30.40;99.90;;;30.16;47.55;101982.91;5002354;28;20383;-75
2021/07/27 10:09:30;;;;;;;8.48;2.70;;;30.70;99.90;;;30.25;43.12;101976.44;5010276;28;20058;-75
2021/07/27 10:12:14;;;;;;;3.00;2.10;;;30.20;98.90;;;29.55;44.30;101872.94;5013873;28;20030;-75
2021/07/27 10:14:44;;;;;;;3.75;2.30;;;29.90;99.90;;;29.56;46.24;101886.31;5011591;28;20125;-75
2021/07/27 10:17:14;;;;;;;5.10;2.70;;;30.00;99.90;;;28.91;45.50;101805.66;5016140;28;20153;-75
2021/07/27 10:19:52;;;;;;;3.47;2.28;;;29.50;99.90;;;29.00;47.93;101844.47;4981088;28;20056;-75
2021/07/27 10:22:30;;;;;;;9.80;2.80;;;29.60;99.80;;;29.09;44.50;101827.25;4997687;28;20038;-75
2021/07/27 10:24:56;;;;;;;3.80;2.38;;;30.00;99.90;;;29.83;44.44;101920.44;4999671;28;20152;-74
2021/07/27 10:27:21;;;;;;;2.75;2.33;;;30.00;99.90;;;29.34;44.10;101847.13;4995388;28;20511;-75
2021/07/27 10:29:48;;;;;;;5.05;2.30;;;29.60;99.20;;;29.22;43.70;101833.03;4996474;28;20030;-74
2021/07/27 10:32:18;;;;;;;5.13;2.70;;;29.40;99.00;;;28.78;44.54;101779.03;4997887;28;20034;-74